createdAt,value
2019-02-07T00:08:18.804Z,76.10
2019-02-07T00:11:05.916Z,76.00
2019-02-07T00:16:49.689Z,75.80
2019-02-07T00:19:30.217Z,75.70
2019-02-07T00:45:15.506Z,75.30
2019-02-07T00:47:57.317Z,75.20
2019-02-07T01:02:24.335Z,75.20
2019-02-07T01:08:01.397Z,75.20
2019-02-07T01:10:42.663Z,75.30
2019-02-07T01:13:11.159Z,75.30
2019-02-07T01:16:18.113Z,75.00
2019-02-07T01:18:59.334Z,75.10
2019-02-07T01:21:40.261Z,75.20
2019-02-07T01:27:12.571Z,75.20
2019-02-07T01:29:53.369Z,75.20
2019-02-07T01:32:33.960Z,75.20
2019-02-07T01:35:14.851Z,75.10
2019-02-07T01:37:55.500Z,75.30
2019-02-07T01:40:36.401Z,75.10
2019-02-07T01:43:20.602Z,75.10
2019-02-07T01:46:00.809Z,75.20
2019-02-07T01:48:41.472Z,75.20
2019-02-07T01:51:22.532Z,75.00
2019-02-07T01:54:03.413Z,75.10
2019-02-07T01:59:35.532Z,75.30
2019-02-07T02:02:22.289Z,75.20
2019-02-07T02:05:04.695Z,75.30
2019-02-07T02:13:35.197Z,75.30
2019-02-07T02:16:15.710Z,75.20
2019-02-07T02:21:52.975Z,75.30
2019-02-07T02:27:25.324Z,75.30
2019-02-07T02:30:07.930Z,75.40
2019-02-07T02:32:48.341Z,75.40
2019-02-07T02:35:29.619Z,75.40
2019-02-07T02:38:11.201Z,75.50
2019-02-07T02:40:52.398Z,75.50
2019-02-07T02:43:34.944Z,75.50
2019-02-07T02:46:16.361Z,75.40
2019-02-07T02:48:56.648Z,75.40
2019-02-07T02:51:37.396Z,75.40
2019-02-07T02:54:20.851Z,75.40
2019-02-07T02:57:01.887Z,75.40
2019-02-07T02:59:43.309Z,75.50
2019-02-07T03:05:38.245Z,75.40
2019-02-07T03:11:56.109Z,75.60
2019-02-07T03:20:14.342Z,75.90
2019-02-07T03:29:28.109Z,75.90
2019-02-07T03:41:48.745Z,75.90
2019-02-07T03:47:56.344Z,75.90
2019-02-07T03:53:47.141Z,75.80
2019-02-07T04:05:17.218Z,75.90
2019-02-07T04:10:56.442Z,76.00
2019-02-07T04:22:33.739Z,76.00
2019-02-07T04:25:36.544Z,76.00
2019-02-07T04:28:16.179Z,76.00
2019-02-07T04:30:55.780Z,76.10
2019-02-07T04:51:32.996Z,75.90
2019-02-07T04:57:25.731Z,75.90
2019-02-07T05:05:42.736Z,76.00
2019-02-07T05:08:45.334Z,76.00
2019-02-07T05:26:18.390Z,75.90
2019-02-07T05:29:19.738Z,75.90
2019-02-07T05:34:48.087Z,75.90
2019-02-07T05:40:25.487Z,75.80
2019-02-07T05:43:10.829Z,75.80
2019-02-07T05:52:17.309Z,75.50
2019-02-07T05:57:42.648Z,75.40
2019-02-07T06:10:02.295Z,75.40
2019-02-07T06:12:44.861Z,75.30
2019-02-07T06:18:21.793Z,75.30
2019-02-07T06:24:33.278Z,75.30
2019-02-07T06:36:07.217Z,75.00
2019-02-07T06:41:41.081Z,74.80
2019-02-07T06:47:38.941Z,74.10
2019-02-07T06:50:22.830Z,74.00
2019-02-07T06:56:33.976Z,74.60
2019-02-07T06:59:18.715Z,73.80
2019-02-07T07:02:21.520Z,73.70
2019-02-07T07:08:13.614Z,73.60
2019-02-07T07:10:58.697Z,73.60
2019-02-07T07:14:00.152Z,73.50
2019-02-07T07:16:44.250Z,73.70
2019-02-07T07:22:39.493Z,73.90
2019-02-07T07:30:58.189Z,74.10
2019-02-07T07:33:40.197Z,74.20
2019-02-07T07:36:42.736Z,74.30
2019-02-07T07:42:49.805Z,74.10
2019-02-07T07:45:34.200Z,74.20
2019-02-07T07:48:35.720Z,74.10
2019-02-07T07:51:17.666Z,74.30
2019-02-07T07:54:03.086Z,74.10
2019-02-07T07:57:05.809Z,74.20
2019-02-07T07:59:47.830Z,74.20
2019-02-07T08:02:49.225Z,74.20
2019-02-07T08:08:24.669Z,74.00
2019-02-07T08:11:09.067Z,74.00
2019-02-07T08:17:03.899Z,73.90
2019-02-07T08:23:01.536Z,72.70
2019-02-07T08:25:47.073Z,72.70
2019-02-07T08:31:46.664Z,72.70
2019-02-07T08:40:32.709Z,72.60
2019-02-07T08:46:11.181Z,72.80
2019-02-07T08:58:31.769Z,73.00
2019-02-07T09:04:22.787Z,72.50
2019-02-07T09:10:06.584Z,72.30
2019-02-07T09:19:01.583Z,72.00
2019-02-07T09:27:47.614Z,72.10
2019-02-07T09:39:29.105Z,71.90
2019-02-07T09:42:32.019Z,71.80
2019-02-07T09:51:53.176Z,71.70
2019-02-07T09:57:22.711Z,71.80
2019-02-07T10:00:24.330Z,71.80
2019-02-07T10:06:02.463Z,71.70
2019-02-07T10:11:54.278Z,71.60
2019-02-07T10:17:46.175Z,71.80
2019-02-07T10:20:53.234Z,71.80
2019-02-07T10:26:27.129Z,71.80
2019-02-07T10:29:31.157Z,71.80
2019-02-07T10:35:22.763Z,72.00
2019-02-07T10:47:24.177Z,72.20
2019-02-07T11:02:45.679Z,72.40
2019-02-07T11:11:10.254Z,75.20
2019-02-07T11:19:54.415Z,74.80
2019-02-07T11:22:36.539Z,74.90
2019-02-07T11:25:37.665Z,74.70
2019-02-07T11:28:40.797Z,74.50
2019-02-07T11:31:23.841Z,75.20
2019-02-07T11:34:09.345Z,74.60
2019-02-07T11:39:51.322Z,74.70
2019-02-07T11:45:42.396Z,74.30
2019-02-07T11:55:00.639Z,75.20
2019-02-07T11:58:02.191Z,74.50
2019-02-07T12:01:03.835Z,74.40
2019-02-07T12:03:50.818Z,74.30
2019-02-07T12:09:40.709Z,73.90
2019-02-07T12:12:42.360Z,75.00
2019-02-07T12:15:45.119Z,74.90
2019-02-07T12:18:28.279Z,75.40
2019-02-07T12:21:10.397Z,75.30
2019-02-07T12:23:55.920Z,75.80
2019-02-07T12:26:39.977Z,76.10
2019-02-07T12:44:05.322Z,77.30
2019-02-07T12:46:50.145Z,75.70
2019-02-07T12:52:42.530Z,76.70
2019-02-07T12:55:23.006Z,76.40
2019-02-07T12:58:05.908Z,76.40
2019-02-07T13:01:06.856Z,77.20
2019-02-07T13:03:48.685Z,76.70
2019-02-07T13:06:49.949Z,77.20
2019-02-07T13:09:52.756Z,77.60
2019-02-07T13:12:35.137Z,77.80
2019-02-07T13:18:22.053Z,77.90
2019-02-07T13:24:08.385Z,78.40
2019-02-07T13:26:54.167Z,79.00
2019-02-07T13:29:39.339Z,78.70
2019-02-07T13:32:22.031Z,78.80
2019-02-07T13:35:07.075Z,79.30
2019-02-07T13:37:49.342Z,79.20
2019-02-07T13:40:34.239Z,79.40
2019-02-07T13:43:36.975Z,79.40
2019-02-07T13:46:38.372Z,79.50
2019-02-07T13:49:39.872Z,79.20
2019-02-07T13:52:41.446Z,79.80
2019-02-07T13:55:27.018Z,79.40
2019-02-07T14:01:07.039Z,79.70
2019-02-07T14:04:08.449Z,79.60
2019-02-07T14:06:54.099Z,79.50
2019-02-07T14:09:39.669Z,79.80
2019-02-07T14:12:22.705Z,79.90
2019-02-07T14:18:12.754Z,79.90
2019-02-07T14:24:03.264Z,79.90
2019-02-07T14:26:50.514Z,80.00
2019-02-07T14:29:35.147Z,77.20
2019-02-07T14:32:17.349Z,79.40
2019-02-07T14:37:54.574Z,79.80
2019-02-07T14:40:37.548Z,79.00
2019-02-07T14:43:20.203Z,80.20
2019-02-07T14:46:05.990Z,80.80
2019-02-07T14:48:46.554Z,80.80
2019-02-07T14:51:27.531Z,81.20
2019-02-07T14:54:08.370Z,81.10
2019-02-07T14:56:49.750Z,80.80
2019-02-07T14:59:30.410Z,81.00
2019-02-07T15:02:11.327Z,81.30
2019-02-07T15:04:52.327Z,81.50
2019-02-07T15:07:32.954Z,81.50
2019-02-07T15:10:01.384Z,81.70
2019-02-07T15:12:49.157Z,81.90
2019-02-07T15:15:30.296Z,81.80
2019-02-07T15:18:11.225Z,81.70
2019-02-07T15:20:52.119Z,82.20
2019-02-07T15:26:11.395Z,81.90
2019-02-07T15:28:52.247Z,81.80
2019-02-07T15:31:33.126Z,82.30
2019-02-07T15:34:13.572Z,82.30
2019-02-07T15:36:55.274Z,82.20
2019-02-07T15:39:36.454Z,82.10
2019-02-07T15:42:17.559Z,81.90
2019-02-07T15:44:58.676Z,82.00
2019-02-07T15:47:39.592Z,82.10
2019-02-07T15:50:20.958Z,81.90
2019-02-07T15:53:03.562Z,81.90
2019-02-07T15:55:44.255Z,81.90
2019-02-07T15:58:28.794Z,81.70
2019-02-07T16:01:14.736Z,82.80
2019-02-07T16:03:58.672Z,81.20
2019-02-07T16:06:39.799Z,81.70
2019-02-07T16:09:29.423Z,80.80
2019-02-07T16:12:17.631Z,81.90
2019-02-07T16:14:58.136Z,82.10
2019-02-07T16:17:38.845Z,82.20
2019-02-07T16:20:19.704Z,81.90
2019-02-07T16:23:01.398Z,82.50
2019-02-07T16:25:42.182Z,82.70
2019-02-07T16:28:23.118Z,82.20
2019-02-07T16:31:03.978Z,81.20
2019-02-07T16:33:44.884Z,82.60
2019-02-07T16:39:04.899Z,82.10
2019-02-07T16:41:49.742Z,82.00
2019-02-07T16:44:31.018Z,82.80
2019-02-07T16:47:12.333Z,82.10
2019-02-07T16:49:52.959Z,81.50
2019-02-07T16:52:33.980Z,81.50
2019-02-07T16:55:14.605Z,81.00
2019-02-07T16:57:55.729Z,81.00
2019-02-07T17:00:36.995Z,80.80
2019-02-07T17:03:18.681Z,80.90
2019-02-07T17:05:59.503Z,81.00
2019-02-07T17:08:39.981Z,81.10
2019-02-07T17:11:21.098Z,80.50
2019-02-07T17:14:02.244Z,80.20
2019-02-07T17:16:43.134Z,80.40
2019-02-07T17:19:24.957Z,80.20
2019-02-07T17:22:05.794Z,80.40
2019-02-07T17:24:46.516Z,79.90
2019-02-07T17:27:27.123Z,79.70
2019-02-07T17:30:07.618Z,79.70
2019-02-07T17:32:48.898Z,79.60
2019-02-07T17:35:38.512Z,79.40
2019-02-07T17:38:26.792Z,79.30
2019-02-07T17:41:08.203Z,79.20
2019-02-07T17:43:50.167Z,79.00
2019-02-07T17:46:31.016Z,78.80
2019-02-07T17:49:11.825Z,79.00
2019-02-07T17:51:52.483Z,79.00
2019-02-07T17:54:33.029Z,79.60
2019-02-07T17:57:14.753Z,79.20
2019-02-07T17:59:57.173Z,78.80
2019-02-07T18:02:25.756Z,79.10
2019-02-07T18:05:13.688Z,78.50
2019-02-07T18:07:42.211Z,78.30
2019-02-07T18:10:29.996Z,78.60
2019-02-07T18:13:10.940Z,78.70
2019-02-07T18:15:52.109Z,78.50
2019-02-07T18:18:33.256Z,78.20
2019-02-07T18:21:15.505Z,79.40
2019-02-07T18:23:56.193Z,79.20
2019-02-07T18:26:37.202Z,78.60
2019-02-07T18:29:19.342Z,78.70
2019-02-07T18:31:47.961Z,78.60
2019-02-07T18:34:35.819Z,79.90
2019-02-07T18:37:23.883Z,80.70
2019-02-07T18:40:05.290Z,82.40
2019-02-07T18:45:30.551Z,84.00
2019-02-07T18:48:13.537Z,85.00
2019-02-07T18:50:56.545Z,85.20
2019-02-07T18:53:38.336Z,84.30
2019-02-07T18:56:19.658Z,85.60
2019-02-07T18:59:00.282Z,85.50
2019-02-07T19:01:40.839Z,84.90
2019-02-07T19:04:21.294Z,85.30
2019-02-07T19:07:02.526Z,86.00
2019-02-07T19:09:46.269Z,85.70
2019-02-07T19:12:26.520Z,86.00
2019-02-07T19:15:07.651Z,86.10
2019-02-07T19:17:49.565Z,85.80
2019-02-07T19:20:39.104Z,85.60
2019-02-07T19:23:27.214Z,85.40
2019-02-07T19:26:08.070Z,85.30
2019-02-07T19:28:49.616Z,85.10
2019-02-07T19:31:32.932Z,84.90
2019-02-07T19:34:13.506Z,84.80
2019-02-07T19:36:55.471Z,84.70
2019-02-07T19:39:37.399Z,84.60
2019-02-07T19:42:18.188Z,84.40
2019-02-07T19:44:58.464Z,84.30
2019-02-07T19:47:39.738Z,84.30
2019-02-07T19:50:21.169Z,84.10
2019-02-07T19:53:03.117Z,84.00
2019-02-07T19:55:43.949Z,83.90
2019-02-07T19:58:24.722Z,83.80
2019-02-07T20:01:05.638Z,83.60
2019-02-07T20:03:48.150Z,83.50
2019-02-07T20:06:28.996Z,83.40
2019-02-07T20:09:10.297Z,83.30
2019-02-07T20:11:50.569Z,83.30
2019-02-07T20:14:31.446Z,83.30
2019-02-07T20:17:14.547Z,83.20
2019-02-07T20:19:55.801Z,83.20
2019-02-07T20:22:36.562Z,83.20
2019-02-07T20:25:17.335Z,83.20
2019-02-07T20:27:57.925Z,83.20
2019-02-07T20:30:38.599Z,83.10
2019-02-07T20:33:20.601Z,83.10
2019-02-07T20:36:01.892Z,83.20
2019-02-07T20:38:42.943Z,83.10
2019-02-07T20:41:23.994Z,83.10
2019-02-07T20:44:05.012Z,83.10
2019-02-07T20:46:45.882Z,83.10
2019-02-07T20:49:26.382Z,83.00
2019-02-07T20:52:07.865Z,83.00
2019-02-07T20:54:48.597Z,83.00
2019-02-07T20:57:17.021Z,83.00
2019-02-07T21:00:25.769Z,83.00
2019-02-07T21:03:06.091Z,83.00
2019-02-07T21:05:47.651Z,83.00
2019-02-07T21:08:28.349Z,83.00
2019-02-07T21:11:09.265Z,83.00
2019-02-07T21:13:49.982Z,82.90
2019-02-07T21:16:30.579Z,83.10
2019-02-07T21:19:11.444Z,83.00
2019-02-07T21:21:54.582Z,83.10
2019-02-07T21:24:34.958Z,83.80
2019-02-07T21:27:15.780Z,83.40
2019-02-07T21:29:56.750Z,83.40
2019-02-07T21:32:37.613Z,83.30
2019-02-07T21:35:18.141Z,83.10
2019-02-07T21:37:58.664Z,83.40
2019-02-07T21:40:40.927Z,83.70
2019-02-07T21:43:22.089Z,83.40
2019-02-07T21:45:50.843Z,83.40
2019-02-07T21:48:46.105Z,83.40
2019-02-07T21:51:25.775Z,83.00
2019-02-07T21:54:06.889Z,83.00
2019-02-07T21:56:48.894Z,82.80
2019-02-07T21:59:29.806Z,82.80
2019-02-07T22:02:12.613Z,82.80
2019-02-07T22:04:53.275Z,82.70
2019-02-07T22:07:33.940Z,82.70
2019-02-07T22:10:15.763Z,82.60
2019-02-07T22:12:56.956Z,82.60
2019-02-07T22:15:37.278Z,82.50
2019-02-07T22:18:19.036Z,82.50
2019-02-07T22:21:00.817Z,82.40
2019-02-07T22:23:41.811Z,82.40
2019-02-07T22:26:22.780Z,82.50
2019-02-07T22:29:03.385Z,82.70
2019-02-07T22:31:44.394Z,82.40
2019-02-07T22:34:26.733Z,82.40
2019-02-07T22:37:09.038Z,82.30
2019-02-07T22:39:37.970Z,82.20
2019-02-07T22:42:25.811Z,82.20
2019-02-07T22:45:06.815Z,82.20
2019-02-07T22:47:47.392Z,82.20
2019-02-07T22:53:12.147Z,82.40
2019-02-07T22:55:52.777Z,82.60
2019-02-07T22:58:33.846Z,82.90
2019-02-07T23:01:15.923Z,82.70
2019-02-07T23:06:35.465Z,83.10
2019-02-07T23:09:17.190Z,83.10
2019-02-07T23:11:57.985Z,82.80
2019-02-07T23:14:38.910Z,82.80
2019-02-07T23:17:19.746Z,82.70
2019-02-07T23:20:00.596Z,82.70
2019-02-07T23:22:41.105Z,83.00
2019-02-07T23:25:22.293Z,83.40
2019-02-07T23:28:03.009Z,82.90
2019-02-07T23:30:44.955Z,82.90
2019-02-07T23:33:25.881Z,83.30
2019-02-07T23:36:06.620Z,83.10
2019-02-07T23:38:48.331Z,83.20
2019-02-07T23:41:30.946Z,83.10
2019-02-07T23:44:11.848Z,83.10
2019-02-07T23:46:54.036Z,83.10
2019-02-07T23:49:35.113Z,83.20
2019-02-07T23:52:16.722Z,83.30
2019-02-07T23:54:57.990Z,83.20
2019-02-07T23:57:38.455Z,83.10
